Main page
METAR-TAF:

METAR-TAF

Airports :

Cornwall Airport Newquay

Newquay Cornwall, England

latitude: 50-26N, longitude: 005-00W, elevation: 119 m

Current weather observation

The report was made 39 minutes ago, at 06:20 UTC
Wind 3 kt from the South/Southeast
Temperature 1°C
Humidity 80%
Pressure 1013 hPa
Visibility 10 km or more
Scattered clouds at a height of 2600 ft

METAR: EGHQ 080620Z 15003KT 9999 SCT026 01/M02 Q1013

Time: 06:59 (06:59 UTC)

Forecast

The report was made 2 hours and 0 minutes ago, at 04:59 UTC
Forecast valid from 08 at 06 UTC to 08 at 15 UTC
Wind 3 kt from the Northeast
Visibility 10 km or more
Scattered clouds at a height of 3000 ft
Probability 40% :
Temporary
from 08 at 06 UTC to 08 at 09 UTC
Visibility: 6000 m
Broken clouds at a height of 1200 ft
rain showers
Temporary
from 08 at 09 UTC to 08 at 15 UTC
Visibility: 6000 m
Broken clouds at a height of 800 ft
rain showers

TAF: EGHQ 080459Z 0806/0815 05003KT 9999 SCT030 PROB40 TEMPO 0806/0809 6000 SHRA BKN012 TEMPO 0809/0815 6000 SHRA BKN008

Weather observations and forecasts of more than 4000 airports (METAR and TAF reports).

The available stations are represented by yellow and red dots on the map.

Hover mouse over dot to see the name of the station.

Then click to see weather observations and forecasts.

To change the map : click on the green buttons with a black cross to zoom in, on the green button with a dash to zoom out, or on the green arrows for adjacent maps.


METAR-TAF: